WAT2918 GVAC-DIAP
Flight info
| Callsign | WAT2918 |
|---|---|
| Flight time | 2h 57m |
| Altitude | 23000 |
| Route | IRPOT1A POLMO R976 LUMPO/N0486F390 UR976 NARAT/N0481F410 UR976 ANITI UR979 PIVKI MOKAR2G |
| Aircraft | A359/H-SDE2E3GHIJ3J4J5LM1ORWXY/LB1D1 |
Departure
| Time | 2026-04-29 15:44 |
|---|---|
| Airport | Amílcar Cabral International Airport (GVAC) |
Arrival
| Time | 2026-04-29 18:42 |
|---|---|
| Airport | Félix-Houphouët-Boigny International Airport (DIAP) |
| Time | Latitude | Longitude | Altitude | Speed | Heading |
|---|---|---|---|---|---|
| 2026-04-29 15:27 | 16.73365 | -22.94505 | 189 ft | 0 kts | 89° |
| 2026-04-29 15:34 | 16.73365 | -22.94506 | 189 ft | 0 kts | 89° |
| 2026-04-29 15:36 | 16.73365 | -22.94509 | 189 ft | 2 kts | 89° |
| 2026-04-29 15:37 | 16.73365 | -22.94524 | 190 ft | 2 kts | 89° |
| 2026-04-29 15:37 | 16.73365 | -22.94540 | 190 ft | 2 kts | 89° |
| 2026-04-29 15:37 | 16.73365 | -22.94556 | 190 ft | 2 kts | 91° |
| 2026-04-29 15:37 | 16.73367 | -22.94571 | 190 ft | 2 kts | 116° |
| 2026-04-29 15:38 | 16.73376 | -22.94583 | 190 ft | 2 kts | 137° |
| 2026-04-29 15:38 | 16.73388 | -22.94592 | 190 ft | 2 kts | 159° |
| 2026-04-29 15:38 | 16.73400 | -22.94596 | 190 ft | 0 kts | 176° |
| 2026-04-29 15:38 | 16.73404 | -22.94596 | 190 ft | 0 kts | 177° |
| 2026-04-29 15:39 | 16.73399 | -22.94595 | 190 ft | 1 kts | 177° |
| 2026-04-29 15:40 | 16.73387 | -22.94595 | 190 ft | 2 kts | 177° |
| 2026-04-29 15:40 | 16.73366 | -22.94594 | 191 ft | 3 kts | 178° |
| 2026-04-29 15:40 | 16.73336 | -22.94593 | 191 ft | 4 kts | 178° |
| 2026-04-29 15:40 | 16.73300 | -22.94591 | 192 ft | 5 kts | 178° |
| 2026-04-29 15:41 | 16.73253 | -22.94591 | 193 ft | 8 kts | 180° |
| 2026-04-29 15:41 | 16.73171 | -22.94591 | 193 ft | 15 kts | 180° |
| 2026-04-29 15:41 | 16.73067 | -22.94641 | 193 ft | 16 kts | 236° |
| 2026-04-29 15:41 | 16.72985 | -22.94692 | 193 ft | 16 kts | 187° |
| 2026-04-29 15:42 | 16.72842 | -22.94692 | 190 ft | 24 kts | 179° |
| 2026-04-29 15:42 | 16.72652 | -22.94691 | 189 ft | 30 kts | 179° |
| 2026-04-29 15:42 | 16.72467 | -22.94693 | 186 ft | 11 kts | 201° |
| 2026-04-29 15:42 | 16.72411 | -22.94760 | 184 ft | 13 kts | 248° |
| 2026-04-29 15:43 | 16.72408 | -22.94850 | 183 ft | 10 kts | 292° |
| 2026-04-29 15:43 | 16.72459 | -22.94881 | 183 ft | 0 kts | 348° |
| 2026-04-29 15:43 | 16.72544 | -22.94884 | 183 ft | 47 kts | 1° |
| 2026-04-29 15:43 | 16.73189 | -22.94880 | 193 ft | 132 kts | 359° |
| 2026-04-29 15:44 | 16.74333 | -22.94909 | 379 ft | 186 kts | 0° |
| 2026-04-29 15:44 | 16.75634 | -22.94927 | 1444 ft | 187 kts | 2° |
| 2026-04-29 15:44 | 16.76856 | -22.94931 | 2481 ft | 175 kts | 1° |
| 2026-04-29 15:44 | 16.78124 | -22.94932 | 2975 ft | 191 kts | 0° |
| 2026-04-29 15:45 | 16.79505 | -22.94939 | 3483 ft | 208 kts | 359° |
| 2026-04-29 15:45 | 16.81019 | -22.94951 | 4050 ft | 224 kts | 358° |
| 2026-04-29 15:45 | 16.82632 | -22.94967 | 4624 ft | 241 kts | 357° |
| 2026-04-29 15:45 | 16.84396 | -22.94870 | 5199 ft | 261 kts | 12° |
| 2026-04-29 15:46 | 16.86025 | -22.93902 | 5803 ft | 282 kts | 44° |
| 2026-04-29 15:46 | 16.87067 | -22.92108 | 6468 ft | 295 kts | 75° |
| 2026-04-29 15:46 | 16.87237 | -22.89972 | 7224 ft | 301 kts | 92° |
| 2026-04-29 15:46 | 16.87183 | -22.87779 | 7701 ft | 307 kts | 92° |
| 2026-04-29 15:47 | 16.87143 | -22.85529 | 7923 ft | 309 kts | 92° |
| 2026-04-29 15:47 | 16.87131 | -22.83281 | 7955 ft | 309 kts | 91° |
| 2026-04-29 15:47 | 16.87135 | -22.81020 | 7967 ft | 309 kts | 91° |
| 2026-04-29 15:47 | 16.87147 | -22.78744 | 7978 ft | 310 kts | 91° |
| 2026-04-29 15:48 | 16.87071 | -22.76611 | 7958 ft | 308 kts | 103° |
| 2026-04-29 15:48 | 16.86323 | -22.74502 | 8014 ft | 304 kts | 125° |
| 2026-04-29 15:48 | 16.85118 | -22.72678 | 8511 ft | 309 kts | 129° |
| 2026-04-29 15:48 | 16.83863 | -22.70879 | 9394 ft | 309 kts | 130° |
| 2026-04-29 15:49 | 16.82590 | -22.69054 | 10216 ft | 310 kts | 129° |
| 2026-04-29 15:49 | 16.81313 | -22.67210 | 10764 ft | 323 kts | 129° |
| 2026-04-29 15:49 | 16.79966 | -22.65251 | 11179 ft | 339 kts | 128° |
| 2026-04-29 15:49 | 16.78533 | -22.63149 | 11590 ft | 356 kts | 128° |
| 2026-04-29 15:50 | 16.77068 | -22.60989 | 11947 ft | 372 kts | 127° |
| 2026-04-29 15:50 | 16.75550 | -22.58746 | 12323 ft | 386 kts | 127° |
| 2026-04-29 15:50 | 16.73989 | -22.56435 | 12927 ft | 393 kts | 127° |
| 2026-04-29 15:50 | 16.72405 | -22.54089 | 13595 ft | 396 kts | 126° |
| 2026-04-29 15:51 | 16.70804 | -22.51718 | 14250 ft | 400 kts | 126° |
| 2026-04-29 15:51 | 16.69181 | -22.49312 | 14873 ft | 404 kts | 126° |
| 2026-04-29 15:51 | 16.67536 | -22.46875 | 15466 ft | 408 kts | 126° |
| 2026-04-29 15:51 | 16.65881 | -22.44428 | 16041 ft | 413 kts | 126° |
| 2026-04-29 15:52 | 16.64220 | -22.41971 | 16599 ft | 417 kts | 126° |
| 2026-04-29 15:52 | 16.62531 | -22.39471 | 17158 ft | 421 kts | 126° |
| 2026-04-29 15:52 | 16.60887 | -22.37039 | 17668 ft | 425 kts | 127° |
| 2026-04-29 15:52 | 16.59158 | -22.34488 | 18189 ft | 429 kts | 127° |
| 2026-04-29 15:53 | 16.57438 | -22.31941 | 18699 ft | 433 kts | 126° |
| 2026-04-29 15:53 | 16.55763 | -22.29271 | 19192 ft | 438 kts | 123° |
| 2026-04-29 15:53 | 16.54257 | -22.26477 | 19661 ft | 444 kts | 118° |
| 2026-04-29 15:53 | 16.52914 | -22.23536 | 20150 ft | 448 kts | 115° |
| 2026-04-29 15:54 | 16.51630 | -22.20544 | 20618 ft | 452 kts | 115° |
| 2026-04-29 15:54 | 16.50348 | -22.17526 | 21079 ft | 456 kts | 115° |
| 2026-04-29 15:54 | 16.49061 | -22.14501 | 21521 ft | 461 kts | 115° |
| 2026-04-29 15:54 | 16.47748 | -22.11428 | 21951 ft | 465 kts | 115° |
| 2026-04-29 15:55 | 16.46403 | -22.08289 | 22397 ft | 469 kts | 115° |
| 2026-04-29 15:55 | 16.45057 | -22.05154 | 22834 ft | 473 kts | 115° |
| 2026-04-29 15:55 | 16.43699 | -22.01995 | 23277 ft | 477 kts | 115° |
| 2026-04-29 15:55 | 16.42406 | -21.98992 | 23697 ft | 479 kts | 115° |
| 2026-04-29 15:56 | 16.41042 | -21.95820 | 24150 ft | 482 kts | 115° |
| 2026-04-29 15:56 | 16.39660 | -21.92610 | 24592 ft | 486 kts | 115° |
| 2026-04-29 15:56 | 16.38265 | -21.89372 | 25006 ft | 489 kts | 115° |
| 2026-04-29 15:56 | 16.36884 | -21.86170 | 25395 ft | 492 kts | 115° |
| 2026-04-29 15:57 | 16.35476 | -21.82905 | 25774 ft | 495 kts | 115° |
| 2026-04-29 15:57 | 16.34048 | -21.79596 | 26164 ft | 498 kts | 115° |
| 2026-04-29 15:57 | 16.32635 | -21.76318 | 26533 ft | 501 kts | 115° |
| 2026-04-29 15:57 | 16.31207 | -21.73004 | 26886 ft | 504 kts | 115° |
| 2026-04-29 15:58 | 16.29771 | -21.69678 | 27252 ft | 506 kts | 115° |
| 2026-04-29 15:58 | 16.28320 | -21.66325 | 27640 ft | 508 kts | 115° |
| 2026-04-29 15:58 | 16.26941 | -21.62916 | 27960 ft | 512 kts | 112° |
| 2026-04-29 15:58 | 16.25676 | -21.59456 | 28277 ft | 515 kts | 111° |
| 2026-04-29 15:59 | 16.24439 | -21.56006 | 28604 ft | 517 kts | 111° |
| 2026-04-29 15:59 | 16.23181 | -21.52473 | 28954 ft | 519 kts | 111° |
| 2026-04-29 15:59 | 16.21920 | -21.48934 | 29286 ft | 521 kts | 111° |
| 2026-04-29 15:59 | 16.20673 | -21.45439 | 29598 ft | 524 kts | 111° |
| 2026-04-29 16:00 | 16.19394 | -21.41861 | 29909 ft | 526 kts | 111° |
| 2026-04-29 16:00 | 16.18122 | -21.38312 | 30210 ft | 528 kts | 111° |
| 2026-04-29 16:00 | 16.16823 | -21.34690 | 30530 ft | 530 kts | 112° |
| 2026-04-29 16:00 | 16.15543 | -21.31115 | 30799 ft | 532 kts | 111° |
| 2026-04-29 16:01 | 16.14242 | -21.27477 | 31085 ft | 534 kts | 112° |
| 2026-04-29 16:01 | 16.12950 | -21.23866 | 31493 ft | 533 kts | 112° |
| 2026-04-29 16:01 | 16.11653 | -21.20247 | 31945 ft | 531 kts | 112° |
| 2026-04-29 16:01 | 16.10350 | -21.16619 | 32367 ft | 530 kts | 112° |
| 2026-04-29 16:02 | 16.09053 | -21.13012 | 32774 ft | 529 kts | 112° |
| 2026-04-29 16:02 | 16.07767 | -21.09441 | 33242 ft | 527 kts | 112° |
| 2026-04-29 16:02 | 16.06489 | -21.05893 | 33681 ft | 526 kts | 112° |
| 2026-04-29 16:02 | 16.05202 | -21.02326 | 34085 ft | 525 kts | 112° |
| 2026-04-29 16:03 | 16.03926 | -20.98790 | 34517 ft | 524 kts | 113° |
| 2026-04-29 16:03 | 16.02648 | -20.95251 | 34914 ft | 523 kts | 112° |
| 2026-04-29 16:03 | 16.01373 | -20.91725 | 35312 ft | 522 kts | 113° |
| 2026-04-29 16:03 | 16.00092 | -20.88184 | 35708 ft | 521 kts | 113° |
| 2026-04-29 16:04 | 15.98811 | -20.84646 | 36059 ft | 520 kts | 113° |
| 2026-04-29 16:04 | 15.97556 | -20.81177 | 36386 ft | 520 kts | 113° |
| 2026-04-29 16:04 | 15.96285 | -20.77669 | 36723 ft | 519 kts | 113° |
| 2026-04-29 16:04 | 15.94989 | -20.74095 | 37020 ft | 519 kts | 113° |
| 2026-04-29 16:05 | 15.93727 | -20.70614 | 37307 ft | 519 kts | 113° |
| 2026-04-29 16:05 | 15.92457 | -20.67111 | 37633 ft | 517 kts | 113° |
| 2026-04-29 16:05 | 15.91184 | -20.63606 | 37928 ft | 517 kts | 113° |
| 2026-04-29 16:05 | 15.89920 | -20.60126 | 38207 ft | 516 kts | 113° |
| 2026-04-29 16:06 | 15.88656 | -20.56678 | 38514 ft | 515 kts | 114° |
| 2026-04-29 16:06 | 15.87366 | -20.53178 | 38823 ft | 514 kts | 114° |
| 2026-04-29 16:06 | 15.86089 | -20.49706 | 39145 ft | 513 kts | 114° |
| 2026-04-29 16:06 | 15.84840 | -20.46295 | 39418 ft | 512 kts | 114° |
| 2026-04-29 16:07 | 15.83573 | -20.42828 | 39597 ft | 513 kts | 113° |
| 2026-04-29 16:07 | 15.81042 | -20.35890 | 39913 ft | 515 kts | 113° |
| 2026-04-29 16:07 | 15.79772 | -20.32399 | 40084 ft | 515 kts | 114° |
| 2026-04-29 16:08 | 15.78508 | -20.28916 | 40232 ft | 516 kts | 113° |
| 2026-04-29 16:08 | 15.77248 | -20.25447 | 40363 ft | 516 kts | 113° |
| 2026-04-29 16:08 | 15.75973 | -20.21943 | 40497 ft | 517 kts | 114° |
| 2026-04-29 16:08 | 15.74700 | -20.18450 | 40633 ft | 517 kts | 114° |
| 2026-04-29 16:09 | 15.73434 | -20.14981 | 40755 ft | 517 kts | 114° |
| 2026-04-29 16:09 | 15.72157 | -20.11483 | 40866 ft | 518 kts | 114° |
| 2026-04-29 16:09 | 15.70888 | -20.08014 | 40911 ft | 518 kts | 114° |
| 2026-04-29 16:10 | 15.68325 | -20.01010 | 40922 ft | 518 kts | 114° |
| 2026-04-29 16:10 | 15.65771 | -19.94033 | 40923 ft | 518 kts | 114° |
| 2026-04-29 16:11 | 15.63230 | -19.87058 | 40923 ft | 518 kts | 113° |
| 2026-04-29 16:11 | 15.60685 | -19.80066 | 40926 ft | 517 kts | 113° |
| 2026-04-29 16:12 | 15.58159 | -19.73123 | 40922 ft | 517 kts | 113° |
| 2026-04-29 16:12 | 15.55602 | -19.66104 | 40923 ft | 517 kts | 113° |
| 2026-04-29 16:13 | 15.53064 | -19.59143 | 40922 ft | 517 kts | 113° |
| 2026-04-29 16:13 | 15.50517 | -19.52168 | 40926 ft | 517 kts | 113° |
| 2026-04-29 16:14 | 15.47978 | -19.45225 | 40924 ft | 517 kts | 113° |
| 2026-04-29 16:14 | 15.45435 | -19.38271 | 40922 ft | 517 kts | 113° |
| 2026-04-29 16:15 | 15.42869 | -19.31256 | 40923 ft | 517 kts | 113° |
| 2026-04-29 16:15 | 15.40321 | -19.24275 | 40921 ft | 517 kts | 113° |
| 2026-04-29 16:16 | 15.37784 | -19.17348 | 40924 ft | 516 kts | 113° |
| 2026-04-29 16:16 | 15.35233 | -19.10401 | 40922 ft | 516 kts | 113° |
| 2026-04-29 16:17 | 15.32658 | -19.03404 | 40924 ft | 517 kts | 113° |
| 2026-04-29 16:17 | 15.30152 | -18.96601 | 40913 ft | 516 kts | 113° |
| 2026-04-29 16:18 | 15.27606 | -18.89693 | 40906 ft | 517 kts | 113° |
| 2026-04-29 16:18 | 15.25044 | -18.82751 | 40902 ft | 517 kts | 113° |
| 2026-04-29 16:19 | 15.22469 | -18.75781 | 40903 ft | 516 kts | 113° |
| 2026-04-29 16:19 | 15.19901 | -18.68838 | 40901 ft | 516 kts | 113° |
| 2026-04-29 16:20 | 15.17332 | -18.61903 | 40900 ft | 516 kts | 113° |
| 2026-04-29 16:20 | 15.14766 | -18.54978 | 40902 ft | 516 kts | 113° |
| 2026-04-29 16:21 | 15.12197 | -18.48053 | 40897 ft | 516 kts | 113° |
| 2026-04-29 16:21 | 15.09614 | -18.41101 | 40897 ft | 515 kts | 113° |
| 2026-04-29 16:22 | 15.07052 | -18.34208 | 40892 ft | 515 kts | 113° |
| 2026-04-29 16:22 | 15.04478 | -18.27258 | 40898 ft | 516 kts | 113° |
| 2026-04-29 16:23 | 15.01904 | -18.20328 | 40898 ft | 515 kts | 113° |
| 2026-04-29 16:23 | 14.99324 | -18.13410 | 40894 ft | 515 kts | 113° |
| 2026-04-29 16:24 | 14.96752 | -18.06514 | 40899 ft | 515 kts | 113° |
| 2026-04-29 16:24 | 14.94166 | -17.99595 | 40897 ft | 515 kts | 114° |
| 2026-04-29 16:25 | 14.91579 | -17.92731 | 40899 ft | 515 kts | 114° |
| 2026-04-29 16:25 | 14.88963 | -17.85826 | 40899 ft | 515 kts | 114° |
| 2026-04-29 16:26 | 14.86325 | -17.78920 | 40897 ft | 515 kts | 114° |
| 2026-04-29 16:26 | 14.83707 | -17.72016 | 40895 ft | 514 kts | 114° |
| 2026-04-29 16:27 | 14.81101 | -17.65114 | 40900 ft | 513 kts | 113° |
| 2026-04-29 16:27 | 14.78515 | -17.58258 | 40898 ft | 513 kts | 113° |
| 2026-04-29 16:28 | 14.75840 | -17.51397 | 40901 ft | 512 kts | 116° |
| 2026-04-29 16:28 | 14.72603 | -17.44912 | 40904 ft | 509 kts | 123° |
| 2026-04-29 16:29 | 14.68717 | -17.38743 | 40906 ft | 507 kts | 127° |
| 2026-04-29 16:29 | 14.64828 | -17.32831 | 40901 ft | 506 kts | 127° |
| 2026-04-29 16:30 | 14.60867 | -17.26763 | 40898 ft | 506 kts | 127° |
| 2026-04-29 16:30 | 14.56948 | -17.20762 | 40887 ft | 505 kts | 127° |
| 2026-04-29 16:31 | 14.53038 | -17.14791 | 40889 ft | 504 kts | 127° |
| 2026-04-29 16:31 | 14.49081 | -17.08753 | 40883 ft | 504 kts | 127° |
| 2026-04-29 16:32 | 14.45183 | -17.02806 | 40880 ft | 504 kts | 127° |
| 2026-04-29 16:32 | 14.41259 | -16.96829 | 40864 ft | 503 kts | 127° |
| 2026-04-29 16:33 | 14.35366 | -16.87854 | 40848 ft | 503 kts | 127° |
| 2026-04-29 16:33 | 14.31452 | -16.81899 | 40851 ft | 502 kts | 127° |
| 2026-04-29 16:34 | 14.27525 | -16.75932 | 40844 ft | 501 kts | 127° |
| 2026-04-29 16:34 | 14.23611 | -16.69990 | 40843 ft | 501 kts | 127° |
| 2026-04-29 16:35 | 14.19693 | -16.64045 | 40836 ft | 501 kts | 127° |
| 2026-04-29 16:35 | 14.15776 | -16.58105 | 40831 ft | 500 kts | 127° |
| 2026-04-29 16:36 | 14.11883 | -16.52204 | 40829 ft | 500 kts | 127° |
| 2026-04-29 16:36 | 14.07971 | -16.46278 | 40822 ft | 499 kts | 127° |
| 2026-04-29 16:37 | 14.04070 | -16.40375 | 40806 ft | 499 kts | 127° |
| 2026-04-29 16:37 | 14.00830 | -16.35475 | 40803 ft | 499 kts | 127° |
| 2026-04-29 16:38 | 13.96293 | -16.28587 | 40798 ft | 498 kts | 127° |
| 2026-04-29 16:38 | 13.92410 | -16.22700 | 40806 ft | 498 kts | 127° |
| 2026-04-29 16:39 | 13.88494 | -16.16790 | 40811 ft | 498 kts | 127° |
| 2026-04-29 16:39 | 13.84566 | -16.10910 | 40792 ft | 498 kts | 127° |
| 2026-04-29 16:40 | 13.80682 | -16.05082 | 40794 ft | 498 kts | 127° |
| 2026-04-29 16:40 | 13.76766 | -15.99191 | 40789 ft | 498 kts | 127° |
| 2026-04-29 16:41 | 13.72860 | -15.93316 | 40787 ft | 498 kts | 127° |
| 2026-04-29 16:41 | 13.68970 | -15.87466 | 40787 ft | 497 kts | 127° |
| 2026-04-29 16:42 | 13.65074 | -15.81609 | 40784 ft | 496 kts | 127° |
| 2026-04-29 16:42 | 13.61166 | -15.75738 | 40789 ft | 495 kts | 127° |
| 2026-04-29 16:43 | 13.57287 | -15.69917 | 40790 ft | 495 kts | 127° |
| 2026-04-29 16:43 | 13.53385 | -15.64064 | 40789 ft | 495 kts | 127° |
| 2026-04-29 16:44 | 13.49509 | -15.58254 | 40793 ft | 495 kts | 127° |
| 2026-04-29 16:44 | 13.45618 | -15.52422 | 40789 ft | 494 kts | 127° |
| 2026-04-29 16:45 | 13.41752 | -15.46636 | 40788 ft | 494 kts | 127° |
| 2026-04-29 16:45 | 13.37872 | -15.40826 | 40785 ft | 494 kts | 127° |
| 2026-04-29 16:46 | 13.33975 | -15.34997 | 40780 ft | 493 kts | 127° |
| 2026-04-29 16:46 | 13.30113 | -15.29195 | 40773 ft | 492 kts | 127° |
| 2026-04-29 16:47 | 13.26248 | -15.23399 | 40781 ft | 492 kts | 127° |
| 2026-04-29 16:47 | 13.22397 | -15.17642 | 40775 ft | 491 kts | 127° |
| 2026-04-29 16:48 | 13.18509 | -15.11847 | 40774 ft | 494 kts | 127° |
| 2026-04-29 16:48 | 13.14586 | -15.06022 | 40774 ft | 497 kts | 127° |
| 2026-04-29 16:49 | 13.10652 | -15.00175 | 40772 ft | 500 kts | 127° |
| 2026-04-29 16:49 | 13.06688 | -14.94282 | 40771 ft | 502 kts | 127° |
| 2026-04-29 16:50 | 13.02714 | -14.88372 | 40772 ft | 504 kts | 127° |
| 2026-04-29 16:50 | 12.98716 | -14.82437 | 40772 ft | 505 kts | 127° |
| 2026-04-29 16:51 | 12.94721 | -14.76507 | 40779 ft | 507 kts | 127° |
| 2026-04-29 16:51 | 12.90686 | -14.70516 | 40779 ft | 508 kts | 127° |
| 2026-04-29 16:52 | 12.86648 | -14.64558 | 40777 ft | 509 kts | 127° |
| 2026-04-29 16:52 | 12.82616 | -14.58609 | 40777 ft | 510 kts | 127° |
| 2026-04-29 16:53 | 12.78584 | -14.52628 | 40771 ft | 510 kts | 127° |
| 2026-04-29 16:53 | 12.74574 | -14.46683 | 40771 ft | 509 kts | 127° |
| 2026-04-29 16:54 | 12.70517 | -14.40719 | 40764 ft | 509 kts | 127° |
| 2026-04-29 16:54 | 12.66498 | -14.34806 | 40767 ft | 508 kts | 127° |
| 2026-04-29 16:55 | 12.62468 | -14.28833 | 40771 ft | 508 kts | 126° |
| 2026-04-29 16:55 | 12.58456 | -14.22888 | 40764 ft | 508 kts | 127° |
| 2026-04-29 16:56 | 12.54442 | -14.16959 | 40768 ft | 508 kts | 126° |
| 2026-04-29 16:56 | 12.50398 | -14.10995 | 40760 ft | 508 kts | 126° |
| 2026-04-29 16:57 | 12.46383 | -14.05079 | 40766 ft | 508 kts | 126° |
| 2026-04-29 16:57 | 12.42357 | -13.99152 | 40758 ft | 508 kts | 126° |
| 2026-04-29 16:58 | 12.38314 | -13.93197 | 40755 ft | 508 kts | 126° |
| 2026-04-29 16:58 | 12.34292 | -13.87276 | 40756 ft | 508 kts | 126° |
| 2026-04-29 16:59 | 12.30253 | -13.81329 | 40751 ft | 507 kts | 126° |
| 2026-04-29 16:59 | 12.26180 | -13.75480 | 40753 ft | 507 kts | 129° |
| 2026-04-29 17:00 | 12.21751 | -13.69845 | 40753 ft | 506 kts | 130° |
| 2026-04-29 17:00 | 12.17334 | -13.64275 | 40761 ft | 506 kts | 130° |
| 2026-04-29 17:01 | 12.12886 | -13.58661 | 40758 ft | 507 kts | 130° |
| 2026-04-29 17:01 | 12.08452 | -13.53060 | 40766 ft | 507 kts | 130° |
| 2026-04-29 17:02 | 12.04034 | -13.47479 | 40773 ft | 506 kts | 130° |
| 2026-04-29 17:02 | 11.99609 | -13.41891 | 40765 ft | 506 kts | 130° |
| 2026-04-29 17:03 | 11.95184 | -13.36308 | 40770 ft | 505 kts | 130° |
| 2026-04-29 17:03 | 11.90776 | -13.30725 | 40764 ft | 505 kts | 130° |
| 2026-04-29 17:04 | 11.86348 | -13.25143 | 40766 ft | 505 kts | 131° |
| 2026-04-29 17:04 | 11.81914 | -13.19570 | 40773 ft | 505 kts | 131° |
| 2026-04-29 17:05 | 11.77599 | -13.13979 | 40772 ft | 506 kts | 128° |
| 2026-04-29 17:05 | 11.73557 | -13.08094 | 40778 ft | 505 kts | 127° |
| 2026-04-29 17:06 | 11.69564 | -13.02210 | 40795 ft | 505 kts | 126° |
| 2026-04-29 17:06 | 11.65569 | -12.96326 | 40821 ft | 504 kts | 126° |
| 2026-04-29 17:07 | 11.62225 | -12.91404 | 40836 ft | 503 kts | 126° |
| 2026-04-29 17:07 | 11.57522 | -12.84486 | 40847 ft | 503 kts | 126° |
| 2026-04-29 17:08 | 11.53499 | -12.78574 | 40864 ft | 503 kts | 126° |
| 2026-04-29 17:08 | 11.49405 | -12.72559 | 40865 ft | 503 kts | 126° |
| 2026-04-29 17:09 | 11.45388 | -12.66658 | 40899 ft | 503 kts | 126° |
| 2026-04-29 17:09 | 11.41323 | -12.60692 | 40932 ft | 502 kts | 126° |
| 2026-04-29 17:10 | 11.37275 | -12.54753 | 40966 ft | 502 kts | 126° |
| 2026-04-29 17:10 | 11.33287 | -12.48900 | 40983 ft | 502 kts | 126° |
| 2026-04-29 17:11 | 11.29270 | -12.43001 | 40989 ft | 502 kts | 126° |
| 2026-04-29 17:11 | 11.25224 | -12.37073 | 40999 ft | 501 kts | 126° |
| 2026-04-29 17:12 | 11.21143 | -12.31279 | 41003 ft | 501 kts | 127° |
| 2026-04-29 17:12 | 11.17710 | -12.26475 | 41002 ft | 500 kts | 127° |
| 2026-04-29 17:13 | 11.12872 | -12.19696 | 40986 ft | 500 kts | 127° |
| 2026-04-29 17:13 | 11.08738 | -12.13900 | 40967 ft | 500 kts | 127° |
| 2026-04-29 17:14 | 11.04615 | -12.08121 | 40946 ft | 501 kts | 127° |
| 2026-04-29 17:14 | 11.00441 | -12.02272 | 40937 ft | 500 kts | 127° |
| 2026-04-29 17:15 | 10.96279 | -11.96442 | 40933 ft | 500 kts | 127° |
| 2026-04-29 17:15 | 10.92120 | -11.90620 | 40930 ft | 499 kts | 127° |
| 2026-04-29 17:16 | 10.88013 | -11.84885 | 40920 ft | 498 kts | 127° |
| 2026-04-29 17:16 | 10.83848 | -11.79101 | 40927 ft | 498 kts | 127° |
| 2026-04-29 17:17 | 10.79715 | -11.73336 | 40915 ft | 497 kts | 127° |
| 2026-04-29 17:17 | 10.75567 | -11.67538 | 40918 ft | 497 kts | 127° |
| 2026-04-29 17:18 | 10.71485 | -11.61823 | 40921 ft | 497 kts | 127° |
| 2026-04-29 17:18 | 10.67397 | -11.56105 | 40929 ft | 496 kts | 127° |
| 2026-04-29 17:19 | 10.63203 | -11.50456 | 40937 ft | 495 kts | 129° |
| 2026-04-29 17:19 | 10.58930 | -11.44867 | 40934 ft | 495 kts | 129° |
| 2026-04-29 17:20 | 10.54670 | -11.39265 | 40933 ft | 494 kts | 129° |
| 2026-04-29 17:20 | 10.50436 | -11.33676 | 40919 ft | 494 kts | 128° |
| 2026-04-29 17:21 | 10.46232 | -11.28089 | 40914 ft | 493 kts | 128° |
| 2026-04-29 17:21 | 10.42042 | -11.22541 | 40918 ft | 492 kts | 128° |
| 2026-04-29 17:22 | 10.37866 | -11.17022 | 40910 ft | 492 kts | 128° |
| 2026-04-29 17:22 | 10.33699 | -11.11520 | 40907 ft | 491 kts | 128° |
| 2026-04-29 17:23 | 10.29527 | -11.06011 | 40892 ft | 491 kts | 128° |
| 2026-04-29 17:23 | 10.25425 | -11.00503 | 40875 ft | 491 kts | 126° |
| 2026-04-29 17:24 | 10.21704 | -10.94659 | 40869 ft | 490 kts | 123° |
| 2026-04-29 17:24 | 10.18141 | -10.88770 | 40855 ft | 489 kts | 122° |
| 2026-04-29 17:25 | 10.14573 | -10.82869 | 40864 ft | 488 kts | 122° |
| 2026-04-29 17:25 | 10.11007 | -10.76984 | 40864 ft | 488 kts | 122° |
| 2026-04-29 17:26 | 10.07262 | -10.71260 | 40863 ft | 487 kts | 126° |
| 2026-04-29 17:26 | 10.03312 | -10.65706 | 40870 ft | 487 kts | 126° |
| 2026-04-29 17:27 | 9.99333 | -10.60117 | 40867 ft | 486 kts | 126° |
| 2026-04-29 17:27 | 9.95378 | -10.54555 | 40874 ft | 484 kts | 126° |
| 2026-04-29 17:28 | 9.91430 | -10.49005 | 40879 ft | 484 kts | 126° |
| 2026-04-29 17:28 | 9.87475 | -10.43466 | 40874 ft | 483 kts | 127° |
| 2026-04-29 17:29 | 9.83536 | -10.37968 | 40884 ft | 482 kts | 126° |
| 2026-04-29 17:29 | 9.80240 | -10.33346 | 40891 ft | 482 kts | 126° |
| 2026-04-29 17:30 | 9.75677 | -10.26907 | 40898 ft | 482 kts | 126° |
| 2026-04-29 17:30 | 9.71763 | -10.21400 | 40908 ft | 482 kts | 126° |
| 2026-04-29 17:31 | 9.67827 | -10.15868 | 40902 ft | 482 kts | 126° |
| 2026-04-29 17:31 | 9.63910 | -10.10366 | 40900 ft | 481 kts | 126° |
| 2026-04-29 17:32 | 9.59993 | -10.04874 | 40897 ft | 481 kts | 126° |
| 2026-04-29 17:32 | 9.56121 | -9.99496 | 40892 ft | 481 kts | 126° |
| 2026-04-29 17:33 | 9.52164 | -9.93996 | 40903 ft | 481 kts | 126° |
| 2026-04-29 17:33 | 9.48240 | -9.88536 | 40907 ft | 481 kts | 126° |
| 2026-04-29 17:34 | 9.44284 | -9.83028 | 40914 ft | 482 kts | 126° |
| 2026-04-29 17:34 | 9.40330 | -9.77521 | 40923 ft | 482 kts | 126° |
| 2026-04-29 17:35 | 9.34406 | -9.69279 | 40934 ft | 482 kts | 126° |
| 2026-04-29 17:36 | 9.30440 | -9.63761 | 40944 ft | 483 kts | 126° |
| 2026-04-29 17:36 | 9.26500 | -9.58281 | 40967 ft | 482 kts | 126° |
| 2026-04-29 17:37 | 9.22540 | -9.52774 | 40985 ft | 483 kts | 126° |
| 2026-04-29 17:37 | 9.18581 | -9.47273 | 40990 ft | 483 kts | 126° |
| 2026-04-29 17:38 | 9.14620 | -9.41767 | 40975 ft | 483 kts | 126° |
| 2026-04-29 17:38 | 9.10666 | -9.36270 | 40980 ft | 482 kts | 126° |
| 2026-04-29 17:39 | 9.06731 | -9.30785 | 40972 ft | 481 kts | 126° |
| 2026-04-29 17:39 | 9.02831 | -9.25258 | 40978 ft | 482 kts | 125° |
| 2026-04-29 17:40 | 8.99013 | -9.19634 | 40974 ft | 482 kts | 124° |
| 2026-04-29 17:40 | 8.95223 | -9.14048 | 40963 ft | 482 kts | 125° |
| 2026-04-29 17:41 | 8.91439 | -9.08486 | 40963 ft | 482 kts | 125° |
| 2026-04-29 17:41 | 8.87605 | -9.02882 | 40948 ft | 481 kts | 125° |
| 2026-04-29 17:42 | 8.83798 | -8.97344 | 40950 ft | 480 kts | 125° |
| 2026-04-29 17:42 | 8.79974 | -8.91759 | 40957 ft | 481 kts | 125° |
| 2026-04-29 17:43 | 8.76118 | -8.86116 | 40947 ft | 482 kts | 124° |
| 2026-04-29 17:43 | 8.72297 | -8.80525 | 40943 ft | 482 kts | 124° |
| 2026-04-29 17:44 | 8.68470 | -8.74921 | 40955 ft | 483 kts | 124° |
| 2026-04-29 17:44 | 8.64656 | -8.69341 | 40957 ft | 482 kts | 124° |
| 2026-04-29 17:45 | 8.60835 | -8.63753 | 40961 ft | 482 kts | 124° |
| 2026-04-29 17:45 | 8.57012 | -8.58161 | 40975 ft | 482 kts | 124° |
| 2026-04-29 17:46 | 8.53206 | -8.52596 | 40971 ft | 482 kts | 124° |
| 2026-04-29 17:46 | 8.49397 | -8.47028 | 40964 ft | 482 kts | 124° |
| 2026-04-29 17:47 | 8.45594 | -8.41470 | 40964 ft | 482 kts | 124° |
| 2026-04-29 17:47 | 8.41787 | -8.35899 | 40957 ft | 482 kts | 124° |
| 2026-04-29 17:48 | 8.37969 | -8.30296 | 40956 ft | 482 kts | 124° |
| 2026-04-29 17:48 | 8.34151 | -8.24718 | 40954 ft | 481 kts | 124° |
| 2026-04-29 17:49 | 8.30360 | -8.19192 | 40953 ft | 481 kts | 125° |
| 2026-04-29 17:49 | 8.26559 | -8.13650 | 40947 ft | 480 kts | 124° |
| 2026-04-29 17:50 | 8.22750 | -8.08092 | 40944 ft | 481 kts | 124° |
| 2026-04-29 17:50 | 8.18942 | -8.02534 | 40934 ft | 481 kts | 124° |
| 2026-04-29 17:51 | 8.15136 | -7.96979 | 40935 ft | 481 kts | 124° |
| 2026-04-29 17:51 | 8.11320 | -7.91416 | 40939 ft | 482 kts | 124° |
| 2026-04-29 17:52 | 8.07505 | -7.85853 | 40925 ft | 482 kts | 124° |
| 2026-04-29 17:52 | 8.03718 | -7.80333 | 40913 ft | 470 kts | 124° |
| 2026-04-29 17:53 | 8.00016 | -7.74941 | 40932 ft | 461 kts | 124° |
| 2026-04-29 17:53 | 7.96351 | -7.69601 | 40931 ft | 461 kts | 124° |
| 2026-04-29 17:54 | 7.92672 | -7.64244 | 40929 ft | 462 kts | 124° |
| 2026-04-29 17:54 | 7.89006 | -7.58911 | 40937 ft | 463 kts | 124° |
| 2026-04-29 17:55 | 7.85324 | -7.53598 | 40944 ft | 464 kts | 124° |
| 2026-04-29 17:55 | 7.81635 | -7.48260 | 40961 ft | 464 kts | 124° |
| 2026-04-29 17:56 | 7.77938 | -7.42897 | 40966 ft | 464 kts | 124° |
| 2026-04-29 17:56 | 7.74247 | -7.37535 | 40962 ft | 466 kts | 124° |
| 2026-04-29 17:57 | 7.70563 | -7.32174 | 40945 ft | 466 kts | 124° |
| 2026-04-29 17:57 | 7.66892 | -7.26816 | 40932 ft | 466 kts | 124° |
| 2026-04-29 17:58 | 7.63201 | -7.21443 | 40916 ft | 468 kts | 124° |
| 2026-04-29 17:58 | 7.59485 | -7.16043 | 40904 ft | 469 kts | 125° |
| 2026-04-29 17:59 | 7.55745 | -7.10615 | 40908 ft | 470 kts | 125° |
| 2026-04-29 17:59 | 7.52017 | -7.05211 | 40891 ft | 470 kts | 125° |
| 2026-04-29 18:00 | 7.48296 | -6.99817 | 40891 ft | 471 kts | 125° |
| 2026-04-29 18:00 | 7.44540 | -6.94374 | 40898 ft | 471 kts | 125° |
| 2026-04-29 18:01 | 7.40811 | -6.88970 | 40901 ft | 471 kts | 125° |
| 2026-04-29 18:01 | 7.37066 | -6.83546 | 40891 ft | 471 kts | 126° |
| 2026-04-29 18:02 | 7.33307 | -6.78106 | 40901 ft | 471 kts | 126° |
| 2026-04-29 18:02 | 7.29586 | -6.72720 | 40902 ft | 472 kts | 126° |
| 2026-04-29 18:03 | 7.25812 | -6.67261 | 40915 ft | 473 kts | 126° |
| 2026-04-29 18:03 | 7.22063 | -6.61838 | 40922 ft | 474 kts | 126° |
| 2026-04-29 18:04 | 7.18269 | -6.56357 | 40924 ft | 476 kts | 126° |
| 2026-04-29 18:04 | 7.14514 | -6.50928 | 40921 ft | 476 kts | 126° |
| 2026-04-29 18:05 | 7.10721 | -6.45448 | 40929 ft | 477 kts | 126° |
| 2026-04-29 18:05 | 7.06919 | -6.39958 | 40924 ft | 477 kts | 126° |
| 2026-04-29 18:06 | 7.03118 | -6.34472 | 40930 ft | 479 kts | 126° |
| 2026-04-29 18:06 | 6.99321 | -6.28959 | 40931 ft | 479 kts | 126° |
| 2026-04-29 18:07 | 6.95530 | -6.23472 | 40940 ft | 479 kts | 126° |
| 2026-04-29 18:07 | 6.91721 | -6.17971 | 40927 ft | 478 kts | 126° |
| 2026-04-29 18:08 | 6.87912 | -6.12492 | 40926 ft | 478 kts | 126° |
| 2026-04-29 18:08 | 6.84115 | -6.07053 | 40919 ft | 477 kts | 126° |
| 2026-04-29 18:09 | 6.80270 | -6.01512 | 40924 ft | 477 kts | 126° |
| 2026-04-29 18:09 | 6.76471 | -5.96027 | 40797 ft | 478 kts | 126° |
| 2026-04-29 18:09 | 6.74572 | -5.93319 | 40112 ft | 474 kts | 126° |
| 2026-04-29 18:10 | 6.72637 | -5.90643 | 39598 ft | 468 kts | 127° |
| 2026-04-29 18:10 | 6.70719 | -5.88014 | 39107 ft | 464 kts | 127° |
| 2026-04-29 18:10 | 6.68819 | -5.85403 | 38567 ft | 466 kts | 127° |
| 2026-04-29 18:10 | 6.66899 | -5.82760 | 38043 ft | 467 kts | 127° |
| 2026-04-29 18:11 | 6.64998 | -5.80139 | 37505 ft | 468 kts | 126° |
| 2026-04-29 18:11 | 6.63082 | -5.77493 | 36941 ft | 468 kts | 126° |
| 2026-04-29 18:11 | 6.61155 | -5.74831 | 36321 ft | 469 kts | 126° |
| 2026-04-29 18:11 | 6.59220 | -5.72157 | 35629 ft | 469 kts | 126° |
| 2026-04-29 18:12 | 6.57302 | -5.69505 | 34994 ft | 470 kts | 126° |
| 2026-04-29 18:12 | 6.55392 | -5.66862 | 34357 ft | 472 kts | 126° |
| 2026-04-29 18:12 | 6.53442 | -5.64166 | 33662 ft | 473 kts | 125° |
| 2026-04-29 18:12 | 6.51529 | -5.61520 | 32982 ft | 475 kts | 125° |
| 2026-04-29 18:13 | 6.49569 | -5.58811 | 32323 ft | 477 kts | 125° |
| 2026-04-29 18:13 | 6.47612 | -5.56105 | 31679 ft | 478 kts | 125° |
| 2026-04-29 18:13 | 6.45655 | -5.53400 | 30929 ft | 480 kts | 125° |
| 2026-04-29 18:13 | 6.43726 | -5.50732 | 30296 ft | 477 kts | 125° |
| 2026-04-29 18:14 | 6.41770 | -5.48027 | 29811 ft | 471 kts | 125° |
| 2026-04-29 18:14 | 6.39860 | -5.45388 | 29235 ft | 469 kts | 124° |
| 2026-04-29 18:14 | 6.37959 | -5.42761 | 28738 ft | 464 kts | 125° |
| 2026-04-29 18:14 | 6.36064 | -5.40143 | 28259 ft | 459 kts | 124° |
| 2026-04-29 18:15 | 6.34210 | -5.37581 | 27800 ft | 454 kts | 124° |
| 2026-04-29 18:15 | 6.32348 | -5.35009 | 27334 ft | 450 kts | 124° |
| 2026-04-29 18:15 | 6.30521 | -5.32476 | 26875 ft | 445 kts | 124° |
| 2026-04-29 18:15 | 6.28702 | -5.29948 | 26432 ft | 441 kts | 124° |
| 2026-04-29 18:16 | 6.26933 | -5.27491 | 25967 ft | 438 kts | 124° |
| 2026-04-29 18:16 | 6.25145 | -5.25014 | 25512 ft | 434 kts | 124° |
| 2026-04-29 18:16 | 6.23388 | -5.22582 | 25053 ft | 430 kts | 124° |
| 2026-04-29 18:16 | 6.21624 | -5.20143 | 24561 ft | 427 kts | 124° |
| 2026-04-29 18:17 | 6.19894 | -5.17755 | 24087 ft | 424 kts | 124° |
| 2026-04-29 18:17 | 6.18154 | -5.15355 | 23627 ft | 420 kts | 124° |
| 2026-04-29 18:17 | 6.16443 | -5.12993 | 23196 ft | 417 kts | 124° |
| 2026-04-29 18:17 | 6.14740 | -5.10643 | 22756 ft | 413 kts | 124° |
| 2026-04-29 18:18 | 6.13074 | -5.08346 | 22340 ft | 410 kts | 124° |
| 2026-04-29 18:18 | 6.11404 | -5.06041 | 21923 ft | 407 kts | 124° |
| 2026-04-29 18:18 | 6.09730 | -5.03731 | 21490 ft | 404 kts | 124° |
| 2026-04-29 18:18 | 6.08079 | -5.01455 | 21070 ft | 401 kts | 124° |
| 2026-04-29 18:19 | 6.06462 | -4.99227 | 20664 ft | 397 kts | 124° |
| 2026-04-29 18:19 | 6.04843 | -4.96996 | 20234 ft | 395 kts | 124° |
| 2026-04-29 18:19 | 6.03228 | -4.94767 | 19780 ft | 393 kts | 124° |
| 2026-04-29 18:19 | 6.01612 | -4.92542 | 19342 ft | 391 kts | 124° |
| 2026-04-29 18:20 | 6.00026 | -4.90357 | 18911 ft | 388 kts | 124° |
| 2026-04-29 18:20 | 5.98431 | -4.88160 | 18491 ft | 385 kts | 124° |
| 2026-04-29 18:20 | 5.96861 | -4.85993 | 18041 ft | 384 kts | 124° |
| 2026-04-29 18:20 | 5.95304 | -4.83849 | 17639 ft | 380 kts | 124° |
| 2026-04-29 18:21 | 5.93753 | -4.81713 | 17216 ft | 378 kts | 124° |
| 2026-04-29 18:21 | 5.92217 | -4.79597 | 16784 ft | 376 kts | 124° |
| 2026-04-29 18:21 | 5.90674 | -4.77474 | 16344 ft | 374 kts | 124° |
| 2026-04-29 18:21 | 5.89135 | -4.75358 | 15924 ft | 372 kts | 124° |
| 2026-04-29 18:22 | 5.87613 | -4.73281 | 15518 ft | 369 kts | 124° |
| 2026-04-29 18:22 | 5.86100 | -4.71217 | 15148 ft | 365 kts | 124° |
| 2026-04-29 18:22 | 5.84622 | -4.69193 | 14778 ft | 361 kts | 124° |
| 2026-04-29 18:22 | 5.83139 | -4.67157 | 14379 ft | 358 kts | 123° |
| 2026-04-29 18:23 | 5.81677 | -4.65149 | 13994 ft | 355 kts | 123° |
| 2026-04-29 18:23 | 5.80216 | -4.63139 | 13582 ft | 353 kts | 123° |
| 2026-04-29 18:23 | 5.78787 | -4.61175 | 13187 ft | 350 kts | 123° |
| 2026-04-29 18:23 | 5.77353 | -4.59201 | 12790 ft | 347 kts | 123° |
| 2026-04-29 18:24 | 5.75928 | -4.57240 | 12418 ft | 343 kts | 123° |
| 2026-04-29 18:24 | 5.74538 | -4.55324 | 12041 ft | 340 kts | 123° |
| 2026-04-29 18:24 | 5.73151 | -4.53413 | 11671 ft | 336 kts | 123° |
| 2026-04-29 18:24 | 5.71781 | -4.51529 | 11311 ft | 333 kts | 124° |
| 2026-04-29 18:25 | 5.70417 | -4.49650 | 10922 ft | 330 kts | 124° |
| 2026-04-29 18:25 | 5.69073 | -4.47800 | 10582 ft | 325 kts | 124° |
| 2026-04-29 18:25 | 5.67761 | -4.45999 | 10402 ft | 300 kts | 124° |
| 2026-04-29 18:25 | 5.66585 | -4.44386 | 10327 ft | 275 kts | 123° |
| 2026-04-29 18:26 | 5.65465 | -4.42844 | 10221 ft | 267 kts | 124° |
| 2026-04-29 18:26 | 5.64394 | -4.41367 | 10113 ft | 260 kts | 124° |
| 2026-04-29 18:26 | 5.63333 | -4.39904 | 10039 ft | 255 kts | 123° |
| 2026-04-29 18:26 | 5.62298 | -4.38477 | 9992 ft | 251 kts | 124° |
| 2026-04-29 18:27 | 5.61269 | -4.37058 | 9935 ft | 250 kts | 124° |
| 2026-04-29 18:27 | 5.60247 | -4.35652 | 9704 ft | 251 kts | 123° |
| 2026-04-29 18:27 | 5.59214 | -4.34227 | 9452 ft | 249 kts | 123° |
| 2026-04-29 18:27 | 5.58203 | -4.32824 | 9197 ft | 248 kts | 123° |
| 2026-04-29 18:28 | 5.57187 | -4.31418 | 8977 ft | 245 kts | 123° |
| 2026-04-29 18:28 | 5.56201 | -4.30058 | 8786 ft | 242 kts | 123° |
| 2026-04-29 18:28 | 5.55210 | -4.28694 | 8577 ft | 240 kts | 123° |
| 2026-04-29 18:28 | 5.54220 | -4.27332 | 8339 ft | 239 kts | 123° |
| 2026-04-29 18:29 | 5.53250 | -4.25990 | 8101 ft | 238 kts | 121° |
| 2026-04-29 18:29 | 5.52719 | -4.25017 | 7932 ft | 236 kts | 111° |
| 2026-04-29 18:29 | 5.52187 | -4.22897 | 7628 ft | 234 kts | 98° |
| 2026-04-29 18:29 | 5.52004 | -4.21277 | 7399 ft | 232 kts | 97° |
| 2026-04-29 18:30 | 5.51835 | -4.19675 | 7170 ft | 231 kts | 97° |
| 2026-04-29 18:30 | 5.51668 | -4.18071 | 6939 ft | 230 kts | 97° |
| 2026-04-29 18:30 | 5.51504 | -4.16488 | 6717 ft | 228 kts | 97° |
| 2026-04-29 18:30 | 5.51338 | -4.14907 | 6500 ft | 226 kts | 97° |
| 2026-04-29 18:31 | 5.51174 | -4.13348 | 6275 ft | 225 kts | 97° |
| 2026-04-29 18:31 | 5.51010 | -4.11793 | 6047 ft | 224 kts | 97° |
| 2026-04-29 18:31 | 5.50847 | -4.10235 | 5807 ft | 223 kts | 97° |
| 2026-04-29 18:31 | 5.50684 | -4.08687 | 5557 ft | 224 kts | 97° |
| 2026-04-29 18:32 | 5.50521 | -4.07131 | 5305 ft | 224 kts | 97° |
| 2026-04-29 18:32 | 5.50192 | -4.04014 | 4806 ft | 225 kts | 97° |
| 2026-04-29 18:32 | 5.50027 | -4.02449 | 4569 ft | 225 kts | 97° |
| 2026-04-29 18:33 | 5.49863 | -4.00896 | 4334 ft | 224 kts | 97° |
| 2026-04-29 18:33 | 5.49698 | -3.99332 | 4094 ft | 225 kts | 97° |
| 2026-04-29 18:33 | 5.49531 | -3.97755 | 3852 ft | 225 kts | 97° |
| 2026-04-29 18:33 | 5.49370 | -3.96230 | 3689 ft | 213 kts | 98° |
| 2026-04-29 18:34 | 5.49219 | -3.94830 | 3710 ft | 187 kts | 100° |
| 2026-04-29 18:34 | 5.49057 | -3.94019 | 3690 ft | 172 kts | 105° |
| 2026-04-29 18:34 | 5.48576 | -3.92624 | 3642 ft | 151 kts | 112° |
| 2026-04-29 18:34 | 5.48174 | -3.91643 | 3612 ft | 150 kts | 112° |
| 2026-04-29 18:35 | 5.47776 | -3.90677 | 3581 ft | 149 kts | 112° |
| 2026-04-29 18:35 | 5.47378 | -3.89710 | 3542 ft | 149 kts | 113° |
| 2026-04-29 18:35 | 5.46983 | -3.88756 | 3500 ft | 149 kts | 113° |
| 2026-04-29 18:35 | 5.46581 | -3.87785 | 3447 ft | 149 kts | 113° |
| 2026-04-29 18:36 | 5.46201 | -3.86867 | 3326 ft | 149 kts | 113° |
| 2026-04-29 18:36 | 5.45801 | -3.85900 | 3182 ft | 148 kts | 113° |
| 2026-04-29 18:36 | 5.45339 | -3.84988 | 2965 ft | 148 kts | 130° |
| 2026-04-29 18:36 | 5.44380 | -3.84724 | 2735 ft | 152 kts | 192° |
| 2026-04-29 18:37 | 5.43457 | -3.85206 | 2733 ft | 147 kts | 201° |
| 2026-04-29 18:37 | 5.42548 | -3.85683 | 2731 ft | 146 kts | 200° |
| 2026-04-29 18:37 | 5.41631 | -3.86142 | 2713 ft | 145 kts | 198° |
| 2026-04-29 18:37 | 5.40713 | -3.86564 | 2680 ft | 146 kts | 197° |
| 2026-04-29 18:38 | 5.39788 | -3.86965 | 2557 ft | 146 kts | 196° |
| 2026-04-29 18:38 | 5.38847 | -3.87359 | 2365 ft | 145 kts | 196° |
| 2026-04-29 18:38 | 5.37906 | -3.87747 | 2178 ft | 145 kts | 196° |
| 2026-04-29 18:38 | 5.36965 | -3.88132 | 1991 ft | 144 kts | 196° |
| 2026-04-29 18:39 | 5.36024 | -3.88517 | 1806 ft | 144 kts | 196° |
| 2026-04-29 18:39 | 5.35098 | -3.88895 | 1615 ft | 143 kts | 197° |
| 2026-04-29 18:39 | 5.34166 | -3.89277 | 1425 ft | 143 kts | 198° |
| 2026-04-29 18:39 | 5.33240 | -3.89658 | 1240 ft | 143 kts | 198° |
| 2026-04-29 18:40 | 5.32319 | -3.90036 | 1055 ft | 143 kts | 199° |
| 2026-04-29 18:40 | 5.31394 | -3.90417 | 869 ft | 143 kts | 200° |
| 2026-04-29 18:40 | 5.30468 | -3.90798 | 684 ft | 142 kts | 200° |
| 2026-04-29 18:40 | 5.29556 | -3.91173 | 505 ft | 142 kts | 201° |
| 2026-04-29 18:41 | 5.26812 | -3.92305 | 42 ft | 140 kts | 203° |
| 2026-04-29 18:41 | 5.25980 | -3.92651 | 33 ft | 100 kts | 202° |
| 2026-04-29 18:42 | 5.25585 | -3.92810 | 36 ft | 25 kts | 202° |
| 2026-04-29 18:42 | 5.25479 | -3.92872 | 37 ft | 9 kts | 247° |
| 2026-04-29 18:42 | 5.25478 | -3.92924 | 38 ft | 6 kts | 286° |
| 2026-04-29 18:42 | 5.25492 | -3.92972 | 39 ft | 7 kts | 282° |
| 2026-04-29 18:43 | 5.25483 | -3.93018 | 39 ft | 6 kts | 239° |
| 2026-04-29 18:43 | 5.25450 | -3.93047 | 40 ft | 4 kts | 212° |
| 2026-04-29 18:43 | 5.25416 | -3.93066 | 40 ft | 5 kts | 212° |
| 2026-04-29 18:43 | 5.25409 | -3.93096 | 41 ft | 5 kts | 289° |
| 2026-04-29 18:44 | 5.25429 | -3.93122 | 41 ft | 4 kts | 314° |
| 2026-04-29 18:44 | 5.25450 | -3.93143 | 42 ft | 3 kts | 318° |
| 2026-04-29 18:44 | 5.25461 | -3.93153 | 42 ft | 0 kts | 318° |